WetterOnline ( http://www.wetteronline.de )

Wetter aktuell Kiel

Aktuelles Wetter: Kiel/Holtenau (27m)

6-stündlich | Neueste Meldungen
Ortszeit Temperatur Wetter
Mo, 25.06. 14:00 18.8° C fast wolkenlos
Mo, 25.06. 8:00 13.5° C bedeckt
Mo, 25.06. 2:00 11.4° C leicht bewölkt
So, 24.06. 20:00 16.1° C bedeckt
So, 24.06. 14:00 15.6° C bedeckt
So, 24.06. 8:00 11.7° C Regen
So, 24.06. 2:00 11.6° C Sprühregen
Sa, 23.06. 20:00 13.0° C bewölkt
Ortszeit Temperatur Wetter
Mo, 25.06. 16:00 16.9° C bedeckt
Mo, 25.06. 15:50 16.9° C bedeckt
Mo, 25.06. 15:40 16.9° C bewölkt
Mo, 25.06. 15:30 18.1° C wolkig
Mo, 25.06. 15:20 18.1° C wolkig
Mo, 25.06. 15:10 18.9° C leicht bewölkt
Mo, 25.06. 15:00 18.9° C leicht bewölkt
Mo, 25.06. 14:30 19.8° C wolkenlos
Mo, 25.06. 14:00 18.8° C fast wolkenlos
Mo, 25.06. 13:30 18.7° C leicht bewölkt
Mo, 25.06. 13:00 18.4° C bewölkt
Ortszeit Relative Feuchte Sichtweite
Mo, 25.06. 14:00 64% 6 km
Mo, 25.06. 8:00 90% 18 km
Mo, 25.06. 2:00 95% 12 km
So, 24.06. 20:00 72% 30 km
So, 24.06. 14:00 76% 24 km
So, 24.06. 8:00 95% 5.0 km
So, 24.06. 2:00 95% 2.8 km
Sa, 23.06. 20:00 93% 19 km
Ortszeit Relative Feuchte Sichtweite
Mo, 25.06. 16:00 74% 19 km
Mo, 25.06. 15:50 74% -
Mo, 25.06. 15:40 73% -
Mo, 25.06. 15:30 69% 14 km
Mo, 25.06. 15:20 69% -
Mo, 25.06. 15:10 66% -
Mo, 25.06. 15:00 65% 8 km
Mo, 25.06. 14:30 61% 7 km
Mo, 25.06. 14:00 64% 6 km
Mo, 25.06. 13:30 66% 9 km
Mo, 25.06. 13:00 68% 10 km
Ortszeit Niederschlagsmenge Niederschlagsart
Mo, 25.06. 14:00 0.1 l/m2 in 6 Std. Regen
Mo, 25.06. 8:00 0.0 l/m2 in 12 Std. -
Mo, 25.06. 2:00 0.0 l/m2 in 6 Std. -
So, 24.06. 20:00 0.1 l/m2 in 12 Std. Regen
So, 24.06. 14:00 0.1 l/m2 in 6 Std. Regen
So, 24.06. 8:00 1 l/m2 in 12 Std. Regen
So, 24.06. 2:00 0.4 l/m2 in 6 Std. Regen
Sa, 23.06. 20:00 1 l/m2 in 12 Std. Regen
Ortszeit Niederschlagsmenge Niederschlagsart
Mo, 25.06. 16:00 0.0 l/m2 in 1 Std. -
Mo, 25.06. 15:50 keine Meldung -
Mo, 25.06. 15:40 keine Meldung -
Mo, 25.06. 15:30 0.0 l/m2 in 1 Std. -
Mo, 25.06. 15:20 keine Meldung -
Mo, 25.06. 15:10 keine Meldung -
Mo, 25.06. 15:00 0.0 l/m2 in 1 Std. -
Mo, 25.06. 14:30 0.0 l/m2 in 1 Std. -
Mo, 25.06. 14:00 0.0 l/m2 in 1 Std. Regen
Mo, 25.06. 13:30 0.0 l/m2 in 1 Std. -
Mo, 25.06. 13:00 0.0 l/m2 in 1 Std. -
Ortszeit Stärke Spitze Richtung
km/h Bft. km/h Grad Sektor
Mo, 25.06. 14:00 19 3 33 260° W
Mo, 25.06. 8:00 14 3 22 290° W
Mo, 25.06. 2:00 9 2 24 260° W
So, 24.06. 20:00 14 3 32 270° W
So, 24.06. 14:00 17 3 35 320° NW
So, 24.06. 8:00 13 3 30 280° W
So, 24.06. 2:00 14 3 36 280° W
Sa, 23.06. 20:00 22 4 43 290° W
Ortszeit Stärke Spitze Richtung
km/h Bft. km/h Grad Sektor
Mo, 25.06. 16:00 17 3 35 270° W
Mo, 25.06. 15:50 17 3 - 270° W
Mo, 25.06. 15:40 19 3 - 280° W
Mo, 25.06. 15:30 19 3 35 270° W
Mo, 25.06. 15:20 19 3 - 270° W
Mo, 25.06. 15:10 25 4 - 280° W
Mo, 25.06. 15:00 24 4 35 280° W
Mo, 25.06. 14:30 18 3 32 260° W
Mo, 25.06. 14:00 19 3 33 260° W
Mo, 25.06. 13:30 20 4 33 270° W
Mo, 25.06. 13:00 20 4 31 270° W
Ortszeit Untergrenze Bedeckung Gattung
total tief tief mittel hoch
Mo, 25.06. 14:00 690 m 1/8 1/8 - - -
Mo, 25.06. 8:00 270 m 8/8 8/8 - - -
Mo, 25.06. 2:00 6300 m 2/8 2/8 - - -
So, 24.06. 20:00 5700 m 8/8 8/8 - - -
So, 24.06. 14:00 600 m 8/8 8/8 - - -
So, 24.06. 8:00 210 m 8/8 8/8 - - -
So, 24.06. 2:00 210 m 8/8 8/8 - - -
Sa, 23.06. 20:00 270 m 7/8 7/8 - - -
Ortszeit Bedeckungsgrad in Achtel und Wolkenuntergrenze
Mo, 25.06. 16:00 8(510m)
Mo, 25.06. 15:50 8(510m)
Mo, 25.06. 15:40 7(540m)
Mo, 25.06. 15:30 6(600m) 7(690m)
Mo, 25.06. 15:20 6(600m)
Mo, 25.06. 15:10 4(660m) 4(810m)
Mo, 25.06. 15:00 3(780m) 4(3000m) 4(3000m)
Mo, 25.06. 14:30 keine Wolken
Mo, 25.06. 14:00 1(690m)
Mo, 25.06. 13:30 3(660m) 5(3300m)
Mo, 25.06. 13:00 7(630m) 7(2700m) 7(4200m)
Ortszeit Luftdruck NN (hPa) Tendenz (hPa in 3 Std.)
Mo, 25.06. 14:00 1020 - 0,1
Mo, 25.06. 8:00 1019 + 0,7
Mo, 25.06. 2:00 1019 + 0,3
So, 24.06. 20:00 1018 - 0,1
So, 24.06. 14:00 1019 + 0,3
So, 24.06. 8:00 1019 + 0,1
So, 24.06. 2:00 1019 - 0,5
Sa, 23.06. 20:00 1019 - 0,3
Ortszeit Luftdruck NN (hPa) Tendenz (hPa in 3 Std.)
Mo, 25.06. 16:00 1021 + 0,7
Mo, 25.06. 15:50 1021 keine Meldung
Mo, 25.06. 15:40 1021 keine Meldung
Mo, 25.06. 15:30 1021 + 0,6
Mo, 25.06. 15:20 1021 keine Meldung
Mo, 25.06. 15:10 1021 keine Meldung
Mo, 25.06. 15:00 1020 + 0,1
Mo, 25.06. 14:30 1020 + 0,2
Mo, 25.06. 14:00 1020 - 0,1
Mo, 25.06. 13:30 1020 + 0,5
Mo, 25.06. 13:00 1020 + 0,6
Ortszeit Schneehöhe (cm)
Mo, 25.06. 14:00 -
Mo, 25.06. 8:00 -
Mo, 25.06. 2:00 -
So, 24.06. 20:00 -
So, 24.06. 14:00 -
So, 24.06. 8:00 -
So, 24.06. 2:00 -
Sa, 23.06. 20:00 -
Ortszeit Schneehöhe (cm)
Mo, 25.06. 16:00 -
Mo, 25.06. 15:50 -
Mo, 25.06. 15:40 -
Mo, 25.06. 15:30 -
Mo, 25.06. 15:20 -
Mo, 25.06. 15:10 -
Mo, 25.06. 15:00 -
Mo, 25.06. 14:30 -
Mo, 25.06. 14:00 -
Mo, 25.06. 13:30 -
Mo, 25.06. 13:00 -
Link zu dieser Seite / Seite empfehlen

Das Wetter in ...